Time;durP1;ratioP1;P1;durP2;ratioP2;P2;SDS_P1;SDS_P2;PMS_P1;PMS_P2;Temp;Humidity;BMP_temperature;BMP_pressure;BME280_temperature;BME280_humidity;BME280_pressure;Samples;Min_cycle;Max_cycle;Signal;HPM_P1;HPM_P2
2022/12/29 00:01:06;;;;;;;;;;;8.10;99.90;;;;;;5067133;28;19918;-69
2022/12/29 00:03:32;;;;;;;;;;;8.10;99.90;;;;;;5067824;28;20474;-68
2022/12/29 00:05:58;;;;;;;;;;;8.10;99.90;;;;;;5080011;28;19908;-68
2022/12/29 00:08:39;;;;;;;;;;;8.10;99.90;;;;;;5088024;28;19915;-68
2022/12/29 00:11:08;;;;;;;;;;;8.10;99.90;;;;;;5087381;28;20023;-68
2022/12/29 00:16:18;;;;;;;;;;;8.10;99.90;;;;;;5086972;28;20003;-68
2022/12/29 00:18:44;;;;;;;;;;;8.10;99.90;;;;;;5087835;28;20012;-68
2022/12/29 00:35:08;;;;;;;;;;;8.20;99.90;;;;;;5087118;28;19915;-68
2022/12/29 00:45:48;;;;;;;;;;;8.20;99.90;;;;;;5086670;28;19966;-68
2022/12/29 00:48:13;;;;;;;;;;;8.20;99.90;;;;;;5086170;28;20292;-68
2022/12/29 00:50:38;;;;;;;;;;;8.20;99.90;;;;;;5086641;28;19915;-68
2022/12/29 00:53:04;;;;;;;;;;;8.20;99.90;;;;;;5086955;28;19908;-68
2022/12/29 00:55:30;;;;;;;;;;;8.20;99.90;;;;;;5087266;28;19916;-68
2022/12/29 00:57:55;;;;;;;;;;;8.20;99.90;;;;;;5072940;28;19919;-68
2022/12/29 01:00:20;;;;;;;;;;;8.20;99.90;;;;;;5066473;28;19955;-68
2022/12/29 01:02:46;;;;;;;;;;;8.20;99.90;;;;;;5066555;28;19913;-68
2022/12/29 01:05:11;;;;;;;;;;;8.20;99.90;;;;;;5066661;28;20476;-68
2022/12/29 01:07:37;;;;;;;;;;;8.20;99.90;;;;;;5066412;28;20008;-68
2022/12/29 01:10:11;;;;;;;;;;;8.30;99.90;;;;;;5066405;28;20006;-68
2022/12/29 01:12:40;;;;;;;;;;;8.30;99.90;;;;;;5048330;28;19939;-68
2022/12/29 01:15:06;;;;;;;;;;;8.30;99.90;;;;;;5084256;28;19916;-68
2022/12/29 01:17:32;;;;;;;;;;;8.30;99.90;;;;;;5086834;28;19912;-68
2022/12/29 01:19:57;;;;;;;;;;;8.30;99.90;;;;;;5086402;28;20007;-68
2022/12/29 01:22:23;;;;;;;;;;;8.30;99.90;;;;;;5084599;28;19912;-68
2022/12/29 01:24:49;;;;;;;;;;;8.30;99.90;;;;;;5086367;28;20353;-68
2022/12/29 01:27:14;;;;;;;;;;;8.30;99.90;;;;;;5078337;28;19912;-68
2022/12/29 01:29:40;;;;;;;;;;;8.30;99.90;;;;;;5066253;28;19916;-68
2022/12/29 01:32:05;;;;;;;;;;;8.30;99.90;;;;;;5066435;28;20027;-68
2022/12/29 01:34:31;;;;;;;;;;;8.30;99.90;;;;;;5066544;28;20513;-68
2022/12/29 01:36:56;;;;;;;;;;;8.30;99.90;;;;;;5066529;28;19955;-68
2022/12/29 01:39:22;;;;;;;;;;;8.40;99.90;;;;;;5084093;28;20490;-68
2022/12/29 01:41:47;;;;;;;;;;;8.30;99.90;;;;;;5089341;28;19912;-68
2022/12/29 01:44:33;;;;;;;;;;;8.40;99.90;;;;;;5090630;28;20273;-68
2022/12/29 01:46:58;;;;;;;;;;;8.40;99.90;;;;;;5079358;28;19989;-68
2022/12/29 01:49:26;;;;;;;;;;;8.40;99.90;;;;;;5090318;28;19916;-68
2022/12/29 01:51:55;;;;;;;;;;;8.40;99.90;;;;;;5090478;28;19970;-68
2022/12/29 01:54:24;;;;;;;;;;;8.40;99.90;;;;;;5090586;28;19916;-68
2022/12/29 01:56:50;;;;;;;;;;;8.40;99.90;;;;;;5085014;28;19916;-67
2022/12/29 01:59:20;;;;;;;;;;;8.40;99.90;;;;;;5070315;28;20458;-68
2022/12/29 02:01:45;;;;;;;;;;;8.40;99.90;;;;;;5069853;28;19913;-68
2022/12/29 02:04:12;;;;;;;;;;;8.50;99.90;;;;;;5052222;28;20391;-68
2022/12/29 02:06:46;;;;;;;;;;;8.50;99.90;;;;;;5069944;28;19920;-68
2022/12/29 02:09:12;;;;;;;;;;;8.40;99.90;;;;;;5070925;28;20049;-68
2022/12/29 02:11:38;;;;;;;;;;;8.50;99.90;;;;;;5088676;28;20461;-68
2022/12/29 02:14:10;;;;;;;;;;;8.50;99.90;;;;;;5089527;28;19956;-68
2022/12/29 02:16:42;;;;;;;;;;;8.50;99.90;;;;;;5089913;28;20019;-68
2022/12/29 02:19:31;;;;;;;;;;;8.40;99.90;;;;;;5090061;28;19909;-68
2022/12/29 02:22:05;;;;;;;;;;;8.50;99.90;;;;;;5057331;28;19965;-68
2022/12/29 02:24:42;;;;;;;;;;;8.50;99.90;;;;;;5081494;28;19981;-68
2022/12/29 02:27:27;;;;;;;;;;;8.50;99.90;;;;;;5089891;28;20355;-68
2022/12/29 02:29:55;;;;;;;;;;;8.50;99.90;;;;;;5088929;28;20448;-67
2022/12/29 02:32:20;;;;;;;;;;;8.50;99.90;;;;;;5083575;28;19920;-68
2022/12/29 02:34:57;;;;;;;;;;;8.50;99.90;;;;;;5069698;28;19916;-68
2022/12/29 02:37:30;;;;;;;;;;;8.50;99.90;;;;;;5069558;28;19948;-68
2022/12/29 02:40:11;;;;;;;;;;;8.50;99.90;;;;;;5069145;28;19912;-68
2022/12/29 02:42:44;;;;;;;;;;;8.50;99.90;;;;;;5084776;28;19920;-67
2022/12/29 02:45:22;;;;;;;;;;;8.50;99.90;;;;;;5087941;28;19908;-67
2022/12/29 02:47:47;;;;;;;;;;;8.50;99.90;;;;;;5088860;28;20455;-68
2022/12/29 02:50:19;;;;;;;;;;;8.50;99.90;;;;;;5089530;28;19995;-67
2022/12/29 02:52:50;;;;;;;;;;;8.50;99.90;;;;;;5088723;28;20525;-67
2022/12/29 02:55:15;;;;;;;;;;;8.60;99.90;;;;;;5089259;28;19924;-68
2022/12/29 02:57:41;;;;;;;;;;;8.50;99.90;;;;;;5089072;28;20443;-68
2022/12/29 03:00:08;;;;;;;;;;;8.60;99.90;;;;;;5089022;28;20621;-68
2022/12/29 03:02:46;;;;;;;;;;;8.50;99.90;;;;;;5089014;28;19908;-68
2022/12/29 03:05:30;;;;;;;;;;;8.60;99.90;;;;;;5088871;28;19955;-67
2022/12/29 03:07:55;;;;;;;;;;;8.50;99.90;;;;;;5088936;28;19912;-68
2022/12/29 03:10:30;;;;;;;;;;;8.50;99.90;;;;;;5088492;28;20257;-69
2022/12/29 03:16:04;;;;;;;;;;;8.60;99.90;;;;;;5067841;28;20408;-68
2022/12/29 03:18:51;;;;;;;;;;;8.60;99.90;;;;;;5067937;28;20381;-68
2022/12/29 03:22:26;;;;;;;;;;;8.60;99.90;;;;;;5076451;28;19912;-67
2022/12/29 03:24:08;;;;;;;;;;;8.60;99.90;;;;;;5087964;28;20034;-67
2022/12/29 03:26:35;;;;;;;;;;;8.60;99.90;;;;;;5085776;28;20014;-68
2022/12/29 03:29:01;;;;;;;;;;;8.60;99.90;;;;;;5083753;28;20320;-68
2022/12/29 03:31:27;;;;;;;;;;;8.70;99.90;;;;;;5085138;28;19912;-68
2022/12/29 03:33:54;;;;;;;;;;;8.60;99.90;;;;;;5088488;28;19965;-67
2022/12/29 03:36:26;;;;;;;;;;;8.60;99.90;;;;;;5087703;28;19962;-67
2022/12/29 03:39:03;;;;;;;;;;;8.60;99.90;;;;;;5088480;28;20466;-68
2022/12/29 03:41:30;;;;;;;;;;;8.60;99.90;;;;;;5087984;28;19912;-67
2022/12/29 03:43:56;;;;;;;;;;;8.60;99.90;;;;;;5088367;28;19912;-68
2022/12/29 03:46:21;;;;;;;;;;;8.70;99.90;;;;;;5069830;28;19927;-68
2022/12/29 03:48:47;;;;;;;;;;;8.60;99.90;;;;;;5088081;28;19920;-68
2022/12/29 03:51:12;;;;;;;;;;;8.70;99.90;;;;;;5087655;28;20002;-68
2022/12/29 03:53:38;;;;;;;;;;;8.70;99.90;;;;;;5087508;28;19935;-68
2022/12/29 03:56:03;;;;;;;;;;;8.70;99.90;;;;;;5087960;28;19951;-67
2022/12/29 03:58:29;;;;;;;;;;;8.70;99.90;;;;;;5069255;28;19912;-68
2022/12/29 04:00:54;;;;;;;;;;;8.70;99.90;;;;;;5070266;28;20328;-67
2022/12/29 04:03:20;;;;;;;;;;;8.70;99.90;;;;;;5086678;28;19916;-68
2022/12/29 04:05:45;;;;;;;;;;;8.70;99.90;;;;;;5088199;28;19986;-68
2022/12/29 04:08:11;;;;;;;;;;;8.70;99.90;;;;;;5087855;28;19908;-68
2022/12/29 04:10:36;;;;;;;;;;;8.70;99.90;;;;;;5068869;28;19939;-67
2022/12/29 04:13:02;;;;;;;;;;;8.60;99.90;;;;;;5087724;28;19924;-68
2022/12/29 04:15:27;;;;;;;;;;;8.70;99.90;;;;;;5087897;28;20008;-68
2022/12/29 04:17:53;;;;;;;;;;;8.60;99.90;;;;;;5087850;28;19912;-68
2022/12/29 04:23:03;;;;;;;;;;;8.60;99.90;;;;;;5087579;28;20029;-67
2022/12/29 04:25:30;;;;;;;;;;;8.70;99.90;;;;;;5087259;28;19916;-68
2022/12/29 04:27:55;;;;;;;;;;;8.60;99.90;;;;;;5086733;28;19942;-67
2022/12/29 04:30:21;;;;;;;;;;;8.70;99.90;;;;;;5087073;28;19912;-67
2022/12/29 04:32:46;;;;;;;;;;;8.70;99.90;;;;;;5069126;28;19955;-67
2022/12/29 04:35:12;;;;;;;;;;;8.70;99.90;;;;;;5087631;28;19919;-68
2022/12/29 04:37:37;;;;;;;;;;;8.70;99.90;;;;;;5087570;28;20327;-68
2022/12/29 04:40:03;;;;;;;;;;;8.70;99.90;;;;;;5087376;28;19916;-68
2022/12/29 04:42:28;;;;;;;;;;;8.70;99.90;;;;;;5087437;28;19915;-67
2022/12/29 04:44:54;;;;;;;;;;;8.70;99.90;;;;;;5086471;28;20002;-68
2022/12/29 04:47:19;;;;;;;;;;;8.70;99.90;;;;;;5087381;28;19912;-68
2022/12/29 04:49:44;;;;;;;;;;;8.70;99.90;;;;;;5087174;28;19908;-68
2022/12/29 04:52:10;;;;;;;;;;;8.70;99.90;;;;;;5087358;28;20312;-68
2022/12/29 04:54:36;;;;;;;;;;;8.70;99.90;;;;;;5082400;28;19912;-68
2022/12/29 04:57:01;;;;;;;;;;;8.70;99.90;;;;;;5059449;28;20434;-68
2022/12/29 04:59:27;;;;;;;;;;;8.80;99.90;;;;;;5084729;28;19912;-68
2022/12/29 05:01:52;;;;;;;;;;;8.80;99.90;;;;;;5086393;28;19927;-68
2022/12/29 05:04:17;;;;;;;;;;;8.80;99.90;;;;;;5087263;28;20034;-67
2022/12/29 05:06:43;;;;;;;;;;;8.80;99.90;;;;;;5087063;28;19915;-68
2022/12/29 05:09:08;;;;;;;;;;;8.80;99.90;;;;;;5087362;28;20314;-68
2022/12/29 05:11:34;;;;;;;;;;;8.80;99.90;;;;;;5086370;28;19998;-68
2022/12/29 05:14:00;;;;;;;;;;;8.80;99.90;;;;;;5068431;28;19923;-68
2022/12/29 05:16:25;;;;;;;;;;;8.80;99.90;;;;;;5086356;28;20545;-68
2022/12/29 05:18:51;;;;;;;;;;;8.80;99.90;;;;;;5068192;28;20353;-68
2022/12/29 05:21:16;;;;;;;;;;;8.80;99.90;;;;;;5085862;28;19955;-67
2022/12/29 05:23:42;;;;;;;;;;;8.90;99.90;;;;;;5086478;28;19947;-68
2022/12/29 05:26:07;;;;;;;;;;;8.80;99.90;;;;;;5086669;28;19923;-68
2022/12/29 05:28:32;;;;;;;;;;;8.80;99.90;;;;;;5067451;28;19956;-67
2022/12/29 05:30:58;;;;;;;;;;;8.90;99.90;;;;;;5085180;28;19912;-68
2022/12/29 05:33:23;;;;;;;;;;;8.90;99.90;;;;;;5085981;28;20344;-68
2022/12/29 05:35:49;;;;;;;;;;;8.80;99.90;;;;;;5086382;28;19916;-67
2022/12/29 05:38:14;;;;;;;;;;;8.90;99.90;;;;;;5086719;28;19908;-67
2022/12/29 05:40:40;;;;;;;;;;;8.90;99.90;;;;;;5086258;28;20583;-68
2022/12/29 05:43:05;;;;;;;;;;;8.90;99.90;;;;;;5086433;28;19951;-68
2022/12/29 05:45:31;;;;;;;;;;;8.90;99.90;;;;;;5086647;28;19908;-68
2022/12/29 05:47:56;;;;;;;;;;;8.90;99.90;;;;;;5086288;28;20360;-68
2022/12/29 05:50:22;;;;;;;;;;;8.90;99.90;;;;;;5085400;28;19965;-67
2022/12/29 05:52:47;;;;;;;;;;;8.90;99.90;;;;;;5085587;28;19908;-68
2022/12/29 05:55:13;;;;;;;;;;;9.00;99.90;;;;;;5085211;28;19977;-68
2022/12/29 05:57:38;;;;;;;;;;;9.00;99.90;;;;;;5073919;28;19995;-68
2022/12/29 06:00:04;;;;;;;;;;;9.00;99.90;;;;;;5064657;28;19913;-69
2022/12/29 06:02:30;;;;;;;;;;;8.90;99.90;;;;;;5065187;28;19912;-69
2022/12/29 06:04:56;;;;;;;;;;;8.90;99.90;;;;;;5065247;28;19965;-68
2022/12/29 06:07:21;;;;;;;;;;;9.00;99.90;;;;;;5064691;28;20019;-68
2022/12/29 06:09:46;;;;;;;;;;;9.00;99.90;;;;;;5064924;28;19919;-68
2022/12/29 06:12:12;;;;;;;;;;;9.00;99.90;;;;;;5065216;28;19924;-68
2022/12/29 06:14:37;;;;;;;;;;;9.00;99.90;;;;;;5079405;28;19926;-67
2022/12/29 06:17:03;;;;;;;;;;;9.00;99.90;;;;;;5085686;28;19916;-70
2022/12/29 06:19:28;;;;;;;;;;;9.00;99.90;;;;;;5067783;28;19908;-67
2022/12/29 06:21:54;;;;;;;;;;;9.00;99.90;;;;;;5084510;28;20405;-67
2022/12/29 06:24:20;;;;;;;;;;;9.00;99.90;;;;;;5085763;28;19916;-67
2022/12/29 06:26:45;;;;;;;;;;;9.00;99.90;;;;;;5083220;28;19912;-68
2022/12/29 06:29:13;;;;;;;;;;;9.00;99.90;;;;;;5069494;28;19918;-68
2022/12/29 06:31:38;;;;;;;;;;;9.00;99.90;;;;;;5069396;28;20677;-68
2022/12/29 06:34:04;;;;;;;;;;;9.00;99.90;;;;;;5069483;28;19912;-67
2022/12/29 06:36:29;;;;;;;;;;;9.00;99.90;;;;;;5069537;28;19913;-68
2022/12/29 06:38:55;;;;;;;;;;;9.00;99.90;;;;;;5051634;28;19961;-68
2022/12/29 06:41:20;;;;;;;;;;;9.00;99.90;;;;;;5068560;28;19912;-68
2022/12/29 06:43:46;;;;;;;;;;;9.00;99.90;;;;;;5076226;28;19912;-68
2022/12/29 06:46:11;;;;;;;;;;;9.00;99.90;;;;;;5089245;28;19959;-68
2022/12/29 06:48:37;;;;;;;;;;;9.00;99.90;;;;;;5089689;28;19926;-68
2022/12/29 06:51:02;;;;;;;;;;;9.00;99.90;;;;;;5088988;28;19938;-68
2022/12/29 06:53:28;;;;;;;;;;;9.00;99.90;;;;;;5089203;28;19926;-68
2022/12/29 06:55:53;;;;;;;;;;;9.00;99.90;;;;;;5084485;28;19951;-68
2022/12/29 06:58:19;;;;;;;;;;;9.00;99.90;;;;;;5087354;28;20280;-68
2022/12/29 07:00:44;;;;;;;;;;;9.00;99.90;;;;;;5089030;28;19915;-68
2022/12/29 07:03:09;;;;;;;;;;;9.00;99.90;;;;;;5070512;28;19915;-68
2022/12/29 07:05:35;;;;;;;;;;;9.00;99.90;;;;;;5089069;28;20533;-68
2022/12/29 07:08:01;;;;;;;;;;;9.00;99.90;;;;;;5089083;28;19916;-68
2022/12/29 07:10:26;;;;;;;;;;;9.00;99.90;;;;;;5089163;28;19916;-68
2022/12/29 07:12:52;;;;;;;;;;;9.00;99.90;;;;;;5088715;28;19916;-68
2022/12/29 07:15:17;;;;;;;;;;;9.10;99.90;;;;;;5088099;28;20006;-68
2022/12/29 07:17:43;;;;;;;;;;;9.00;99.90;;;;;;5088938;28;20015;-68
2022/12/29 07:20:09;;;;;;;;;;;9.00;99.90;;;;;;5087829;28;19969;-68
2022/12/29 07:22:34;;;;;;;;;;;9.00;99.90;;;;;;5087224;28;20424;-68
2022/12/29 07:25:00;;;;;;;;;;;9.00;99.90;;;;;;5070369;28;20029;-69
2022/12/29 07:27:25;;;;;;;;;;;9.00;99.90;;;;;;5088461;28;19923;-68
2022/12/29 07:29:51;;;;;;;;;;;9.00;99.90;;;;;;5088219;28;19916;-68
2022/12/29 07:32:16;;;;;;;;;;;9.00;99.90;;;;;;5088051;28;19930;-68
2022/12/29 07:34:42;;;;;;;;;;;9.00;99.90;;;;;;5088662;28;19912;-68
2022/12/29 07:37:07;;;;;;;;;;;9.00;99.90;;;;;;5088210;28;19920;-68
2022/12/29 07:39:32;;;;;;;;;;;9.00;99.90;;;;;;5086672;28;19920;-68
2022/12/29 07:41:58;;;;;;;;;;;9.00;99.90;;;;;;5087563;28;20654;-68
2022/12/29 07:44:23;;;;;;;;;;;9.00;99.90;;;;;;5087773;28;19943;-68
2022/12/29 07:46:49;;;;;;;;;;;9.00;99.90;;;;;;5087857;28;20006;-67
2022/12/29 07:49:14;;;;;;;;;;;9.00;99.90;;;;;;5087716;28;19909;-68
2022/12/29 07:51:40;;;;;;;;;;;9.00;99.90;;;;;;5072464;28;19959;-68
2022/12/29 07:54:05;;;;;;;;;;;9.00;99.90;;;;;;5069546;28;19919;-68
2022/12/29 07:56:31;;;;;;;;;;;9.00;99.90;;;;;;5085716;28;19923;-68
2022/12/29 07:58:56;;;;;;;;;;;9.00;99.90;;;;;;5067970;28;19912;-68
2022/12/29 08:01:23;;;;;;;;;;;9.00;99.90;;;;;;5067297;28;19919;-68
2022/12/29 08:03:48;;;;;;;;;;;9.00;99.90;;;;;;5067170;28;19974;-68
2022/12/29 08:06:15;;;;;;;;;;;9.00;99.90;;;;;;5067440;28;19916;-68
2022/12/29 08:08:40;;;;;;;;;;;9.00;99.90;;;;;;5067909;28;20300;-68
2022/12/29 08:11:06;;;;;;;;;;;8.90;99.90;;;;;;5067382;28;19966;-68
2022/12/29 08:13:31;;;;;;;;;;;8.90;99.90;;;;;;5071977;28;20680;-68
2022/12/29 08:15:59;;;;;;;;;;;8.90;99.90;;;;;;5087708;28;19920;-68
2022/12/29 08:18:25;;;;;;;;;;;9.00;99.90;;;;;;5087650;28;20518;-68
2022/12/29 08:20:50;;;;;;;;;;;8.90;99.90;;;;;;5086280;28;19919;-69
2022/12/29 08:23:16;;;;;;;;;;;8.90;99.90;;;;;;5084785;28;20246;-68
2022/12/29 08:25:41;;;;;;;;;;;9.00;99.90;;;;;;5084260;28;19912;-68
2022/12/29 08:28:07;;;;;;;;;;;9.00;99.90;;;;;;5087464;28;19912;-68
2022/12/29 08:30:32;;;;;;;;;;;8.90;99.90;;;;;;5087440;28;19916;-68
2022/12/29 08:32:58;;;;;;;;;;;8.90;99.90;;;;;;5087575;28;19915;-69
2022/12/29 08:35:23;;;;;;;;;;;8.90;99.90;;;;;;5087349;28;19923;-69
2022/12/29 08:37:48;;;;;;;;;;;9.00;99.90;;;;;;5087361;28;20307;-68
2022/12/29 08:40:14;;;;;;;;;;;8.90;99.90;;;;;;5086652;28;19947;-68
2022/12/29 08:42:39;;;;;;;;;;;8.90;99.90;;;;;;5086784;28;19912;-68
2022/12/29 08:45:05;;;;;;;;;;;9.00;99.90;;;;;;5087517;28;19908;-68
2022/12/29 08:47:31;;;;;;;;;;;9.00;99.90;;;;;;5087500;28;19912;-68
2022/12/29 08:49:56;;;;;;;;;;;9.00;99.90;;;;;;5086542;28;19916;-69
2022/12/29 08:52:22;;;;;;;;;;;9.00;99.90;;;;;;5086984;28;19926;-68
2022/12/29 08:54:48;;;;;;;;;;;9.00;99.90;;;;;;5068242;28;20258;-69
2022/12/29 08:57:13;;;;;;;;;;;9.00;99.90;;;;;;5085942;28;19966;-69
2022/12/29 08:59:39;;;;;;;;;;;9.00;99.90;;;;;;5086097;28;19962;-69
2022/12/29 09:02:05;;;;;;;;;;;9.00;99.90;;;;;;5085794;28;20261;-69
2022/12/29 09:04:30;;;;;;;;;;;9.00;99.90;;;;;;5080073;28;19920;-69
2022/12/29 09:06:56;;;;;;;;;;;9.00;99.90;;;;;;5086338;28;19985;-69
2022/12/29 09:09:21;;;;;;;;;;;9.00;99.90;;;;;;5086041;28;20576;-68
2022/12/29 09:11:47;;;;;;;;;;;9.00;99.90;;;;;;5086310;28;19912;-68
2022/12/29 09:14:12;;;;;;;;;;;9.00;99.90;;;;;;5086464;28;19924;-69
2022/12/29 09:16:38;;;;;;;;;;;9.00;99.90;;;;;;5086233;28;19912;-69
2022/12/29 09:19:04;;;;;;;;;;;9.00;99.90;;;;;;5086156;28;19908;-68
2022/12/29 09:21:29;;;;;;;;;;;9.00;99.90;;;;;;5084491;28;19969;-69
2022/12/29 09:23:55;;;;;;;;;;;9.00;99.90;;;;;;5086735;28;20523;-68
2022/12/29 09:26:20;;;;;;;;;;;9.00;99.90;;;;;;5085908;28;20004;-68
2022/12/29 09:28:46;;;;;;;;;;;9.00;99.90;;;;;;5066389;28;20222;-68
2022/12/29 09:31:12;;;;;;;;;;;9.00;99.90;;;;;;5048026;28;19958;-68
2022/12/29 09:33:38;;;;;;;;;;;9.00;99.90;;;;;;5072847;28;19916;-68
2022/12/29 09:36:03;;;;;;;;;;;8.90;99.90;;;;;;5086645;28;19915;-68
2022/12/29 09:38:29;;;;;;;;;;;8.90;99.90;;;;;;5086661;28;19908;-68
2022/12/29 09:40:56;;;;;;;;;;;8.90;99.90;;;;;;5068122;28;19954;-68
2022/12/29 09:43:30;;;;;;;;;;;8.90;99.90;;;;;;5086376;28;20331;-68
2022/12/29 09:46:14;;;;;;;;;;;9.00;99.90;;;;;;5086346;28;20353;-68
2022/12/29 09:48:44;;;;;;;;;;;9.00;99.90;;;;;;5086596;28;19908;-68
2022/12/29 09:51:14;;;;;;;;;;;9.00;99.90;;;;;;5067962;28;20625;-68
2022/12/29 09:53:44;;;;;;;;;;;9.00;99.90;;;;;;5086442;28;19995;-68
2022/12/29 09:56:15;;;;;;;;;;;9.00;99.90;;;;;;5085697;28;19962;-68
2022/12/29 09:58:42;;;;;;;;;;;9.00;99.90;;;;;;5066202;28;19935;-68
2022/12/29 10:01:17;;;;;;;;;;;9.00;99.90;;;;;;5066189;28;20527;-68
2022/12/29 10:03:43;;;;;;;;;;;9.00;99.90;;;;;;5070219;28;19923;-68
2022/12/29 10:06:13;;;;;;;;;;;9.10;99.90;;;;;;5069986;28;19913;-68
2022/12/29 10:08:38;;;;;;;;;;;9.00;99.90;;;;;;5069997;28;19969;-68
2022/12/29 10:11:04;;;;;;;;;;;9.10;99.90;;;;;;5069456;28;20377;-68
2022/12/29 10:13:44;;;;;;;;;;;9.10;99.90;;;;;;5074129;28;19927;-68
2022/12/29 10:16:10;;;;;;;;;;;9.00;99.90;;;;;;5090080;28;20006;-68
2022/12/29 10:18:48;;;;;;;;;;;9.10;99.90;;;;;;5090242;28;20003;-68
2022/12/29 10:21:19;;;;;;;;;;;9.10;99.90;;;;;;5088819;28;20388;-68
2022/12/29 10:23:45;;;;;;;;;;;9.10;99.90;;;;;;5089742;28;20430;-69
2022/12/29 10:26:15;;;;;;;;;;;9.10;99.90;;;;;;5089807;28;19948;-68
2022/12/29 10:28:40;;;;;;;;;;;9.10;99.90;;;;;;5069913;28;19912;-68
2022/12/29 10:31:09;;;;;;;;;;;9.20;99.90;;;;;;5069426;28;20254;-68
2022/12/29 10:33:37;;;;;;;;;;;9.20;99.90;;;;;;5075606;28;19962;-68
2022/12/29 10:36:11;;;;;;;;;;;9.20;99.90;;;;;;5089350;28;19916;-69
2022/12/29 10:38:42;;;;;;;;;;;9.20;99.90;;;;;;5089985;28;20022;-68
2022/12/29 10:41:07;;;;;;;;;;;9.20;99.90;;;;;;5089354;28;19912;-68
2022/12/29 10:43:45;;;;;;;;;;;9.20;99.90;;;;;;5089531;28;20486;-68
2022/12/29 10:46:12;;;;;;;;;;;9.30;99.90;;;;;;5071299;28;19912;-68
2022/12/29 10:48:38;;;;;;;;;;;9.30;99.90;;;;;;5071334;28;19938;-68
2022/12/29 10:51:04;;;;;;;;;;;9.30;99.90;;;;;;5089509;28;20342;-69
2022/12/29 10:53:37;;;;;;;;;;;9.30;99.90;;;;;;5089635;28;19916;-68
2022/12/29 10:56:05;;;;;;;;;;;9.30;99.90;;;;;;5071574;28;20640;-68
2022/12/29 10:58:32;;;;;;;;;;;9.30;99.90;;;;;;5070556;28;19947;-68
2022/12/29 11:00:57;;;;;;;;;;;9.30;99.90;;;;;;5068793;28;19912;-68
2022/12/29 11:03:47;;;;;;;;;;;9.30;99.90;;;;;;5073089;28;19916;-68
2022/12/29 11:06:17;;;;;;;;;;;9.30;99.90;;;;;;5089335;28;19965;-68
2022/12/29 11:08:58;;;;;;;;;;;9.30;99.90;;;;;;5089461;28;20689;-68
2022/12/29 11:11:32;;;;;;;;;;;9.30;99.90;;;;;;5089025;28;19965;-68
2022/12/29 11:14:17;;;;;;;;;;;9.30;99.90;;;;;;5088887;28;20349;-68
2022/12/29 11:16:44;;;;;;;;;;;9.40;99.90;;;;;;5088320;28;19916;-68
2022/12/29 11:19:23;;;;;;;;;;;9.40;99.90;;;;;;5089220;28;20002;-68
2022/12/29 11:21:49;;;;;;;;;;;9.30;99.90;;;;;;5088139;28;20022;-68
2022/12/29 11:24:20;;;;;;;;;;;9.40;99.90;;;;;;5070737;28;19915;-68
2022/12/29 11:26:45;;;;;;;;;;;9.30;99.90;;;;;;5088646;28;20638;-68
2022/12/29 11:29:17;;;;;;;;;;;9.40;99.90;;;;;;5082007;28;19923;-68
2022/12/29 11:31:45;;;;;;;;;;;9.30;99.90;;;;;;5078304;28;19916;-69
2022/12/29 11:34:18;;;;;;;;;;;9.30;99.90;;;;;;5084095;28;19951;-68
2022/12/29 11:36:43;;;;;;;;;;;9.40;99.90;;;;;;5088554;28;19920;-68
2022/12/29 11:39:22;;;;;;;;;;;9.40;99.90;;;;;;5088398;28;19915;-68
2022/12/29 11:41:51;;;;;;;;;;;9.30;99.90;;;;;;5070403;28;19912;-68
2022/12/29 11:44:17;;;;;;;;;;;9.30;99.90;;;;;;5087368;28;20503;-68
2022/12/29 11:46:46;;;;;;;;;;;9.30;99.90;;;;;;5086030;28;20141;-68
2022/12/29 11:49:13;;;;;;;;;;;9.30;99.90;;;;;;5085640;28;19912;-68
2022/12/29 11:51:46;;;;;;;;;;;9.30;99.90;;;;;;5085936;28;19912;-68
2022/12/29 11:54:16;;;;;;;;;;;9.30;99.90;;;;;;5088485;28;19912;-68
2022/12/29 11:56:43;;;;;;;;;;;9.30;99.90;;;;;;5068633;28;20008;-68
2022/12/29 11:59:24;;;;;;;;;;;9.30;99.90;;;;;;5068181;28;19944;-68
2022/12/29 12:01:49;;;;;;;;;;;9.30;99.90;;;;;;5067671;28;19912;-68
2022/12/29 12:04:17;;;;;;;;;;;9.30;99.90;;;;;;5067983;28;19919;-68
2022/12/29 12:07:02;;;;;;;;;;;9.30;99.90;;;;;;5068339;28;20337;-69
2022/12/29 12:09:43;;;;;;;;;;;9.40;99.90;;;;;;5060246;28;19995;-68
2022/12/29 12:12:18;;;;;;;;;;;9.30;99.90;;;;;;5067834;28;19912;-68
2022/12/29 12:15:03;;;;;;;;;;;9.40;99.90;;;;;;5082213;28;20005;-69
2022/12/29 12:17:37;;;;;;;;;;;9.30;99.90;;;;;;5069015;28;20038;-68
2022/12/29 12:20:02;;;;;;;;;;;9.40;99.90;;;;;;5087005;28;20400;-68
2022/12/29 12:22:32;;;;;;;;;;;9.40;99.90;;;;;;5086956;28;19947;-68
2022/12/29 12:25:20;;;;;;;;;;;9.40;99.90;;;;;;5086822;28;19919;-68
2022/12/29 12:27:48;;;;;;;;;;;9.40;99.90;;;;;;5075056;28;19919;-68
2022/12/29 12:30:16;;;;;;;;;;;9.40;99.90;;;;;;5067176;28;19913;-68
2022/12/29 12:33:02;;;;;;;;;;;9.40;99.90;;;;;;5049210;28;20349;-68
2022/12/29 12:35:34;;;;;;;;;;;9.40;99.90;;;;;;5066228;28;20007;-68
2022/12/29 12:38:08;;;;;;;;;;;9.40;99.90;;;;;;5067100;28;19913;-68
2022/12/29 12:40:42;;;;;;;;;;;9.40;99.90;;;;;;5066971;28;19912;-69
2022/12/29 12:43:32;;;;;;;;;;;9.40;99.90;;;;;;5068479;28;19912;-69
2022/12/29 12:46:08;;;;;;;;;;;9.40;99.90;;;;;;5086795;28;19919;-69
2022/12/29 12:48:40;;;;;;;;;;;9.40;99.90;;;;;;5084739;28;19916;-68
2022/12/29 12:51:23;;;;;;;;;;;9.40;99.90;;;;;;5085369;28;19908;-69
2022/12/29 12:53:57;;;;;;;;;;;9.40;99.90;;;;;;5086416;28;19915;-68
2022/12/29 12:56:41;;;;;;;;;;;9.40;99.90;;;;;;5084967;28;20500;-68
2022/12/29 12:59:06;;;;;;;;;;;9.40;99.90;;;;;;5066344;28;19913;-68
2022/12/29 13:01:57;;;;;;;;;;;9.40;99.90;;;;;;5065732;28;20360;-68
2022/12/29 13:04:22;;;;;;;;;;;9.40;99.90;;;;;;5078906;28;19948;-69
2022/12/29 13:06:51;;;;;;;;;;;9.40;99.90;;;;;;5086146;28;19962;-69
2022/12/29 13:09:28;;;;;;;;;;;9.40;99.90;;;;;;5086436;28;19919;-69
2022/12/29 13:12:00;;;;;;;;;;;9.40;99.90;;;;;;5085824;28;19912;-68
2022/12/29 13:14:48;;;;;;;;;;;9.40;99.90;;;;;;5086141;28;19923;-68
2022/12/29 13:17:26;;;;;;;;;;;9.40;99.90;;;;;;5077135;28;20327;-68
2022/12/29 13:19:57;;;;;;;;;;;9.40;99.90;;;;;;5085846;28;19912;-69
2022/12/29 13:22:36;;;;;;;;;;;9.40;99.90;;;;;;5084577;28;19916;-68
2022/12/29 13:25:04;;;;;;;;;;;9.40;99.90;;;;;;5085931;28;19995;-69
2022/12/29 13:27:48;;;;;;;;;;;9.40;99.90;;;;;;5079230;28;19953;-69
2022/12/29 13:30:18;;;;;;;;;;;9.40;99.90;;;;;;5067468;28;20410;-69
2022/12/29 13:33:01;;;;;;;;;;;9.40;99.90;;;;;;5085801;28;19917;-69
2022/12/29 13:35:46;;;;;;;;;;;9.40;99.90;;;;;;5067297;28;20662;-69
2022/12/29 13:38:24;;;;;;;;;;;9.40;99.90;;;;;;5070789;28;20354;-68
2022/12/29 13:40:52;;;;;;;;;;;9.40;99.90;;;;;;5079637;28;19923;-69
2022/12/29 13:43:19;;;;;;;;;;;9.40;99.90;;;;;;5090485;28;20376;-68
2022/12/29 13:45:45;;;;;;;;;;;9.40;99.90;;;;;;5090657;28;19908;-68
2022/12/29 13:48:16;;;;;;;;;;;9.40;99.90;;;;;;5090140;28;19956;-68
2022/12/29 13:50:43;;;;;;;;;;;9.40;99.90;;;;;;5090368;28;19916;-69
2022/12/29 13:53:27;;;;;;;;;;;9.40;99.90;;;;;;5090404;28;19912;-68
2022/12/29 13:55:57;;;;;;;;;;;9.40;99.90;;;;;;5069513;28;19956;-69
2022/12/29 13:58:28;;;;;;;;;;;9.40;99.90;;;;;;5086730;28;20372;-68
2022/12/29 14:01:02;;;;;;;;;;;9.40;99.90;;;;;;5068651;28;20318;-69
2022/12/29 14:03:47;;;;;;;;;;;9.40;99.90;;;;;;5087597;28;19912;-69
2022/12/29 14:06:16;;;;;;;;;;;9.40;99.90;;;;;;5089631;28;20414;-68
2022/12/29 14:08:42;;;;;;;;;;;9.40;99.90;;;;;;5089504;28;19920;-69
2022/12/29 14:11:09;;;;;;;;;;;9.40;99.90;;;;;;5070125;28;19935;-69
2022/12/29 14:13:37;;;;;;;;;;;9.40;99.90;;;;;;5089189;28;19951;-68
2022/12/29 14:16:03;;;;;;;;;;;9.30;99.90;;;;;;5089077;28;20031;-69
2022/12/29 14:18:31;;;;;;;;;;;9.30;99.90;;;;;;5089032;28;19969;-68
2022/12/29 14:21:02;;;;;;;;;;;9.30;99.90;;;;;;5087979;28;20311;-68
2022/12/29 14:23:35;;;;;;;;;;;9.30;99.90;;;;;;5089193;28;19912;-68
2022/12/29 14:26:04;;;;;;;;;;;9.30;99.90;;;;;;5086846;28;20508;-68
2022/12/29 14:28:30;;;;;;;;;;;9.30;99.90;;;;;;5087636;28;19989;-68
2022/12/29 14:30:59;;;;;;;;;;;9.30;99.90;;;;;;5089098;28;19919;-68
2022/12/29 14:33:26;;;;;;;;;;;9.30;99.90;;;;;;5088637;28;19999;-68
2022/12/29 14:35:52;;;;;;;;;;;9.30;99.90;;;;;;5089150;28;19922;-68
2022/12/29 14:38:17;;;;;;;;;;;9.30;99.90;;;;;;5089245;28;20284;-68
2022/12/29 14:40:43;;;;;;;;;;;9.30;99.90;;;;;;5088786;28;19912;-68
2022/12/29 14:43:20;;;;;;;;;;;9.30;99.90;;;;;;5088942;28;19912;-68
2022/12/29 14:45:51;;;;;;;;;;;9.30;99.90;;;;;;5088996;28;19912;-68
2022/12/29 14:48:31;;;;;;;;;;;9.30;99.90;;;;;;5088700;28;19912;-68
2022/12/29 14:50:57;;;;;;;;;;;9.30;99.90;;;;;;5089143;28;19912;-68
2022/12/29 14:53:41;;;;;;;;;;;9.30;99.90;;;;;;5089646;28;19916;-68
2022/12/29 14:56:09;;;;;;;;;;;9.30;99.90;;;;;;5089365;28;20592;-68
2022/12/29 14:58:44;;;;;;;;;;;9.20;99.90;;;;;;5088097;28;19916;-68
2022/12/29 15:01:36;;;;;;;;;;;9.30;99.90;;;;;;5090605;28;19948;-68
2022/12/29 15:04:13;;;;;;;;;;;9.20;99.90;;;;;;5084044;28;19965;-68
2022/12/29 15:06:41;;;;;;;;;;;9.20;99.90;;;;;;5070403;28;19912;-68
2022/12/29 15:09:16;;;;;;;;;;;9.20;99.90;;;;;;5088240;28;20296;-68
2022/12/29 15:11:44;;;;;;;;;;;9.20;99.90;;;;;;5089973;28;19947;-68